sensor_id;sensor_type;location;lat;lon;timestamp;temperature;humidity
76567;DHT22;65428;53.194;6.132;2024-02-21T00:02:09;9.50;99.90
76567;DHT22;65428;53.194;6.132;2024-02-21T00:04:35;9.50;99.90
76567;DHT22;65428;53.194;6.132;2024-02-21T00:07:02;9.70;99.90
76567;DHT22;65428;53.194;6.132;2024-02-21T00:09:28;9.40;99.90
76567;DHT22;65428;53.194;6.132;2024-02-21T00:11:53;9.50;99.90
76567;DHT22;65428;53.194;6.132;2024-02-21T00:14:19;9.40;99.90
76567;DHT22;65428;53.194;6.132;2024-02-21T00:16:45;9.40;99.90
76567;DHT22;65428;53.194;6.132;2024-02-21T00:19:10;9.40;99.90
76567;DHT22;65428;53.194;6.132;2024-02-21T00:21:36;9.30;99.90
76567;DHT22;65428;53.194;6.132;2024-02-21T00:24:02;9.30;99.90
76567;DHT22;65428;53.194;6.132;2024-02-21T00:26:27;9.30;99.90
76567;DHT22;65428;53.194;6.132;2024-02-21T00:28:53;9.50;99.90
76567;DHT22;65428;53.194;6.132;2024-02-21T00:31:19;9.70;99.90
76567;DHT22;65428;53.194;6.132;2024-02-21T00:33:44;9.40;99.90
76567;DHT22;65428;53.194;6.132;2024-02-21T00:36:10;9.50;99.90
76567;DHT22;65428;53.194;6.132;2024-02-21T00:38:36;9.50;99.90
76567;DHT22;65428;53.194;6.132;2024-02-21T00:41:01;9.20;99.90
76567;DHT22;65428;53.194;6.132;2024-02-21T00:43:27;9.20;99.90
76567;DHT22;65428;53.194;6.132;2024-02-21T00:45:53;9.20;99.90
76567;DHT22;65428;53.194;6.132;2024-02-21T00:48:18;9.20;99.90
76567;DHT22;65428;53.194;6.132;2024-02-21T00:50:44;9.20;99.90
76567;DHT22;65428;53.194;6.132;2024-02-21T00:53:10;9.20;99.90
76567;DHT22;65428;53.194;6.132;2024-02-21T00:55:35;9.20;99.90
76567;DHT22;65428;53.194;6.132;2024-02-21T00:58:01;9.50;99.90
76567;DHT22;65428;53.194;6.132;2024-02-21T01:00:27;9.20;99.90
76567;DHT22;65428;53.194;6.132;2024-02-21T01:02:52;9.20;99.90
76567;DHT22;65428;53.194;6.132;2024-02-21T01:05:18;9.20;99.90
76567;DHT22;65428;53.194;6.132;2024-02-21T01:07:45;9.00;99.90
76567;DHT22;65428;53.194;6.132;2024-02-21T01:10:11;9.50;99.90
76567;DHT22;65428;53.194;6.132;2024-02-21T01:12:37;9.20;99.90
76567;DHT22;65428;53.194;6.132;2024-02-21T01:15:03;9.20;99.90
76567;DHT22;65428;53.194;6.132;2024-02-21T01:17:28;9.20;99.90
76567;DHT22;65428;53.194;6.132;2024-02-21T01:19:54;9.20;99.90
76567;DHT22;65428;53.194;6.132;2024-02-21T01:22:20;9.30;99.90
76567;DHT22;65428;53.194;6.132;2024-02-21T01:24:45;9.10;99.90
76567;DHT22;65428;53.194;6.132;2024-02-21T01:27:11;9.10;99.90
76567;DHT22;65428;53.194;6.132;2024-02-21T01:29:37;9.20;99.90
76567;DHT22;65428;53.194;6.132;2024-02-21T01:32:03;9.10;99.90
76567;DHT22;65428;53.194;6.132;2024-02-21T01:34:28;9.10;99.90
76567;DHT22;65428;53.194;6.132;2024-02-21T01:36:54;9.10;99.90
76567;DHT22;65428;53.194;6.132;2024-02-21T01:39:20;9.10;99.90
76567;DHT22;65428;53.194;6.132;2024-02-21T01:41:45;9.50;99.90
76567;DHT22;65428;53.194;6.132;2024-02-21T01:44:11;9.10;99.90
76567;DHT22;65428;53.194;6.132;2024-02-21T01:46:36;9.10;99.90
76567;DHT22;65428;53.194;6.132;2024-02-21T01:49:02;9.50;99.90
76567;DHT22;65428;53.194;6.132;2024-02-21T01:51:28;9.10;99.90
76567;DHT22;65428;53.194;6.132;2024-02-21T01:53:55;9.10;99.90
76567;DHT22;65428;53.194;6.132;2024-02-21T01:56:22;9.40;99.90
76567;DHT22;65428;53.194;6.132;2024-02-21T01:58:48;9.40;99.90
76567;DHT22;65428;53.194;6.132;2024-02-21T02:01:14;9.30;99.90
76567;DHT22;65428;53.194;6.132;2024-02-21T02:03:40;9.10;99.90
76567;DHT22;65428;53.194;6.132;2024-02-21T02:06:06;9.10;99.90
76567;DHT22;65428;53.194;6.132;2024-02-21T02:08:32;9.10;99.90
76567;DHT22;65428;53.194;6.132;2024-02-21T02:10:59;9.10;99.90
76567;DHT22;65428;53.194;6.132;2024-02-21T02:13:25;9.10;99.90
76567;DHT22;65428;53.194;6.132;2024-02-21T02:15:51;9.10;99.90
76567;DHT22;65428;53.194;6.132;2024-02-21T02:18:18;9.10;99.90
76567;DHT22;65428;53.194;6.132;2024-02-21T02:20:44;9.30;99.90
76567;DHT22;65428;53.194;6.132;2024-02-21T02:23:29;9.10;99.90
76567;DHT22;65428;53.194;6.132;2024-02-21T02:25:55;9.10;99.90
76567;DHT22;65428;53.194;6.132;2024-02-21T02:28:21;9.50;99.90
76567;DHT22;65428;53.194;6.132;2024-02-21T02:30:48;9.10;99.90
76567;DHT22;65428;53.194;6.132;2024-02-21T02:33:13;9.10;99.90
76567;DHT22;65428;53.194;6.132;2024-02-21T02:35:39;9.10;99.90
76567;DHT22;65428;53.194;6.132;2024-02-21T02:38:05;9.60;99.90
76567;DHT22;65428;53.194;6.132;2024-02-21T02:40:34;9.20;99.90
76567;DHT22;65428;53.194;6.132;2024-02-21T02:43:00;9.10;99.90
76567;DHT22;65428;53.194;6.132;2024-02-21T02:45:26;9.10;99.90
76567;DHT22;65428;53.194;6.132;2024-02-21T02:47:55;9.10;99.90
76567;DHT22;65428;53.194;6.132;2024-02-21T02:50:23;9.60;99.90
76567;DHT22;65428;53.194;6.132;2024-02-21T02:52:49;9.10;99.90
76567;DHT22;65428;53.194;6.132;2024-02-21T02:55:14;9.40;99.90
76567;DHT22;65428;53.194;6.132;2024-02-21T02:57:40;9.10;99.90
76567;DHT22;65428;53.194;6.132;2024-02-21T03:00:07;9.10;99.90
76567;DHT22;65428;53.194;6.132;2024-02-21T03:02:35;9.20;99.90
76567;DHT22;65428;53.194;6.132;2024-02-21T03:05:00;9.20;99.90
76567;DHT22;65428;53.194;6.132;2024-02-21T03:07:26;9.20;99.90
76567;DHT22;65428;53.194;6.132;2024-02-21T03:09:52;9.20;99.90
76567;DHT22;65428;53.194;6.132;2024-02-21T03:12:18;9.20;99.90
76567;DHT22;65428;53.194;6.132;2024-02-21T03:14:53;9.20;99.90
76567;DHT22;65428;53.194;6.132;2024-02-21T03:17:18;8.90;99.90
76567;DHT22;65428;53.194;6.132;2024-02-21T03:19:44;9.30;99.90
76567;DHT22;65428;53.194;6.132;2024-02-21T03:22:09;9.20;99.90
76567;DHT22;65428;53.194;6.132;2024-02-21T03:24:35;9.20;99.90
76567;DHT22;65428;53.194;6.132;2024-02-21T03:27:01;9.20;99.90
76567;DHT22;65428;53.194;6.132;2024-02-21T03:29:26;9.50;99.90
76567;DHT22;65428;53.194;6.132;2024-02-21T03:31:52;9.20;99.90
76567;DHT22;65428;53.194;6.132;2024-02-21T03:34:17;9.40;99.90
76567;DHT22;65428;53.194;6.132;2024-02-21T03:36:43;9.20;99.90
76567;DHT22;65428;53.194;6.132;2024-02-21T03:39:09;9.20;99.90
76567;DHT22;65428;53.194;6.132;2024-02-21T03:41:35;9.20;99.90
76567;DHT22;65428;53.194;6.132;2024-02-21T03:44:00;9.40;99.90
76567;DHT22;65428;53.194;6.132;2024-02-21T03:46:27;9.20;99.90
76567;DHT22;65428;53.194;6.132;2024-02-21T03:48:52;9.30;99.90
76567;DHT22;65428;53.194;6.132;2024-02-21T03:51:18;9.20;99.90
76567;DHT22;65428;53.194;6.132;2024-02-21T03:53:44;9.40;99.90
76567;DHT22;65428;53.194;6.132;2024-02-21T03:56:09;9.20;99.90
76567;DHT22;65428;53.194;6.132;2024-02-21T03:58:35;9.30;99.90
76567;DHT22;65428;53.194;6.132;2024-02-21T04:01:01;9.30;99.90
76567;DHT22;65428;53.194;6.132;2024-02-21T04:03:27;9.30;99.90
76567;DHT22;65428;53.194;6.132;2024-02-21T04:05:53;9.30;99.90
76567;DHT22;65428;53.194;6.132;2024-02-21T04:08:18;9.20;99.90
76567;DHT22;65428;53.194;6.132;2024-02-21T04:10:44;9.20;99.90
76567;DHT22;65428;53.194;6.132;2024-02-21T04:13:10;9.20;99.90
76567;DHT22;65428;53.194;6.132;2024-02-21T04:15:36;9.30;99.90
76567;DHT22;65428;53.194;6.132;2024-02-21T04:18:02;9.60;99.90
76567;DHT22;65428;53.194;6.132;2024-02-21T04:20:29;9.60;99.90
76567;DHT22;65428;53.194;6.132;2024-02-21T04:22:55;9.20;99.90
76567;DHT22;65428;53.194;6.132;2024-02-21T04:25:21;9.20;99.90
76567;DHT22;65428;53.194;6.132;2024-02-21T04:27:46;9.40;99.90
76567;DHT22;65428;53.194;6.132;2024-02-21T04:30:12;9.30;99.90
76567;DHT22;65428;53.194;6.132;2024-02-21T04:32:39;9.30;99.90
76567;DHT22;65428;53.194;6.132;2024-02-21T04:35:05;9.40;99.90
76567;DHT22;65428;53.194;6.132;2024-02-21T04:37:31;9.20;99.90
76567;DHT22;65428;53.194;6.132;2024-02-21T04:39:56;8.90;99.90
76567;DHT22;65428;53.194;6.132;2024-02-21T04:42:22;9.50;99.90
76567;DHT22;65428;53.194;6.132;2024-02-21T04:44:48;9.30;99.90
76567;DHT22;65428;53.194;6.132;2024-02-21T04:47:13;9.30;99.90
76567;DHT22;65428;53.194;6.132;2024-02-21T04:49:39;9.70;99.90
76567;DHT22;65428;53.194;6.132;2024-02-21T04:52:05;9.40;99.90
76567;DHT22;65428;53.194;6.132;2024-02-21T04:54:31;9.60;99.90
76567;DHT22;65428;53.194;6.132;2024-02-21T04:56:56;9.40;99.90
76567;DHT22;65428;53.194;6.132;2024-02-21T04:59:22;9.50;99.90
76567;DHT22;65428;53.194;6.132;2024-02-21T05:01:48;9.30;99.90
76567;DHT22;65428;53.194;6.132;2024-02-21T05:04:13;9.30;99.90
76567;DHT22;65428;53.194;6.132;2024-02-21T05:06:40;9.60;99.90
76567;DHT22;65428;53.194;6.132;2024-02-21T05:09:09;9.30;99.90
76567;DHT22;65428;53.194;6.132;2024-02-21T05:11:35;9.20;99.90
76567;DHT22;65428;53.194;6.132;2024-02-21T05:14:01;9.20;99.90
76567;DHT22;65428;53.194;6.132;2024-02-21T05:16:28;9.70;99.90
76567;DHT22;65428;53.194;6.132;2024-02-21T05:18:54;9.20;99.90
76567;DHT22;65428;53.194;6.132;2024-02-21T05:21:19;9.40;99.90
76567;DHT22;65428;53.194;6.132;2024-02-21T05:23:45;9.30;99.90
76567;DHT22;65428;53.194;6.132;2024-02-21T05:26:11;9.20;99.90
76567;DHT22;65428;53.194;6.132;2024-02-21T05:28:36;9.20;99.90
76567;DHT22;65428;53.194;6.132;2024-02-21T05:31:02;9.50;99.90
76567;DHT22;65428;53.194;6.132;2024-02-21T05:33:28;9.20;99.90
76567;DHT22;65428;53.194;6.132;2024-02-21T05:35:54;9.30;99.90
76567;DHT22;65428;53.194;6.132;2024-02-21T05:38:19;9.20;99.90
76567;DHT22;65428;53.194;6.132;2024-02-21T05:40:45;9.40;99.90
76567;DHT22;65428;53.194;6.132;2024-02-21T05:43:11;9.20;99.90
76567;DHT22;65428;53.194;6.132;2024-02-21T05:45:37;9.40;99.90
76567;DHT22;65428;53.194;6.132;2024-02-21T05:48:03;9.20;99.90
76567;DHT22;65428;53.194;6.132;2024-02-21T05:50:29;9.20;99.90
76567;DHT22;65428;53.194;6.132;2024-02-21T05:52:55;9.20;99.90
76567;DHT22;65428;53.194;6.132;2024-02-21T05:55:21;9.30;99.90
76567;DHT22;65428;53.194;6.132;2024-02-21T05:57:47;9.20;99.90
76567;DHT22;65428;53.194;6.132;2024-02-21T06:00:13;9.20;99.90
76567;DHT22;65428;53.194;6.132;2024-02-21T06:02:40;9.20;99.90
76567;DHT22;65428;53.194;6.132;2024-02-21T06:05:06;9.30;99.90
76567;DHT22;65428;53.194;6.132;2024-02-21T06:07:35;9.20;99.90
76567;DHT22;65428;53.194;6.132;2024-02-21T06:10:02;9.40;99.90
76567;DHT22;65428;53.194;6.132;2024-02-21T06:12:27;9.20;99.90
76567;DHT22;65428;53.194;6.132;2024-02-21T06:14:53;9.10;99.90
76567;DHT22;65428;53.194;6.132;2024-02-21T06:17:18;9.40;99.90
76567;DHT22;65428;53.194;6.132;2024-02-21T06:19:44;9.50;99.90
76567;DHT22;65428;53.194;6.132;2024-02-21T06:22:10;9.10;99.90
76567;DHT22;65428;53.194;6.132;2024-02-21T06:24:36;9.30;99.90
76567;DHT22;65428;53.194;6.132;2024-02-21T06:27:04;9.20;99.90
76567;DHT22;65428;53.194;6.132;2024-02-21T06:29:34;9.20;99.90
76567;DHT22;65428;53.194;6.132;2024-02-21T06:32:01;9.30;99.90
76567;DHT22;65428;53.194;6.132;2024-02-21T06:34:27;9.10;99.90
76567;DHT22;65428;53.194;6.132;2024-02-21T06:36:53;9.30;99.90
76567;DHT22;65428;53.194;6.132;2024-02-21T06:39:19;9.20;99.90
76567;DHT22;65428;53.194;6.132;2024-02-21T06:41:47;9.20;99.90
76567;DHT22;65428;53.194;6.132;2024-02-21T06:44:16;9.20;99.90
76567;DHT22;65428;53.194;6.132;2024-02-21T06:46:41;9.20;99.90
76567;DHT22;65428;53.194;6.132;2024-02-21T06:49:07;9.10;99.90
76567;DHT22;65428;53.194;6.132;2024-02-21T06:51:33;9.20;99.90
76567;DHT22;65428;53.194;6.132;2024-02-21T06:54:00;9.40;99.90
76567;DHT22;65428;53.194;6.132;2024-02-21T06:56:25;9.40;99.90
76567;DHT22;65428;53.194;6.132;2024-02-21T06:58:57;9.20;99.90
76567;DHT22;65428;53.194;6.132;2024-02-21T07:01:23;9.20;99.90
76567;DHT22;65428;53.194;6.132;2024-02-21T07:03:49;9.20;99.90
76567;DHT22;65428;53.194;6.132;2024-02-21T07:06:15;9.50;99.90
76567;DHT22;65428;53.194;6.132;2024-02-21T07:08:41;9.30;99.90
76567;DHT22;65428;53.194;6.132;2024-02-21T07:11:07;9.50;99.90
76567;DHT22;65428;53.194;6.132;2024-02-21T07:13:33;9.20;99.90
76567;DHT22;65428;53.194;6.132;2024-02-21T07:15:58;9.20;99.90
76567;DHT22;65428;53.194;6.132;2024-02-21T07:18:24;9.20;99.90
76567;DHT22;65428;53.194;6.132;2024-02-21T07:20:52;9.30;99.90
76567;DHT22;65428;53.194;6.132;2024-02-21T07:23:18;9.50;99.90
76567;DHT22;65428;53.194;6.132;2024-02-21T07:25:44;9.40;99.90
76567;DHT22;65428;53.194;6.132;2024-02-21T07:28:10;9.60;99.90
76567;DHT22;65428;53.194;6.132;2024-02-21T07:30:35;9.40;99.90
76567;DHT22;65428;53.194;6.132;2024-02-21T07:33:01;9.40;99.90
76567;DHT22;65428;53.194;6.132;2024-02-21T07:35:27;9.20;99.90
76567;DHT22;65428;53.194;6.132;2024-02-21T07:37:53;9.50;99.90
76567;DHT22;65428;53.194;6.132;2024-02-21T07:40:18;9.30;99.90
76567;DHT22;65428;53.194;6.132;2024-02-21T07:42:44;9.50;99.90
76567;DHT22;65428;53.194;6.132;2024-02-21T07:45:10;9.30;99.90
76567;DHT22;65428;53.194;6.132;2024-02-21T07:47:37;9.30;99.90
76567;DHT22;65428;53.194;6.132;2024-02-21T07:50:06;9.30;99.90
76567;DHT22;65428;53.194;6.132;2024-02-21T07:52:32;9.30;99.90
76567;DHT22;65428;53.194;6.132;2024-02-21T07:54:58;9.50;99.90
76567;DHT22;65428;53.194;6.132;2024-02-21T07:57:23;9.60;99.90
76567;DHT22;65428;53.194;6.132;2024-02-21T07:59:49;9.50;99.90
76567;DHT22;65428;53.194;6.132;2024-02-21T08:02:15;9.60;99.90
76567;DHT22;65428;53.194;6.132;2024-02-21T08:04:41;9.30;99.90
76567;DHT22;65428;53.194;6.132;2024-02-21T08:07:07;9.50;99.90
76567;DHT22;65428;53.194;6.132;2024-02-21T08:09:33;9.60;99.90
76567;DHT22;65428;53.194;6.132;2024-02-21T08:11:58;9.60;99.90
76567;DHT22;65428;53.194;6.132;2024-02-21T08:14:24;9.90;99.90
76567;DHT22;65428;53.194;6.132;2024-02-21T08:16:53;9.50;99.90
76567;DHT22;65428;53.194;6.132;2024-02-21T08:19:20;9.10;99.90
76567;DHT22;65428;53.194;6.132;2024-02-21T08:21:46;9.40;99.90
76567;DHT22;65428;53.194;6.132;2024-02-21T08:24:13;9.50;99.90
76567;DHT22;65428;53.194;6.132;2024-02-21T08:26:44;9.40;99.90
76567;DHT22;65428;53.194;6.132;2024-02-21T08:29:12;9.70;99.90
76567;DHT22;65428;53.194;6.132;2024-02-21T08:31:38;9.40;99.90
76567;DHT22;65428;53.194;6.132;2024-02-21T08:34:04;9.50;99.90
76567;DHT22;65428;53.194;6.132;2024-02-21T08:38:56;9.70;99.90
76567;DHT22;65428;53.194;6.132;2024-02-21T08:41:23;10.00;99.90
76567;DHT22;65428;53.194;6.132;2024-02-21T08:43:50;10.00;99.90
76567;DHT22;65428;53.194;6.132;2024-02-21T08:46:16;9.50;99.90
76567;DHT22;65428;53.194;6.132;2024-02-21T08:48:43;9.60;99.90
76567;DHT22;65428;53.194;6.132;2024-02-21T08:51:12;9.60;99.90
76567;DHT22;65428;53.194;6.132;2024-02-21T08:53:37;10.20;99.90
76567;DHT22;65428;53.194;6.132;2024-02-21T08:56:04;9.50;99.90
76567;DHT22;65428;53.194;6.132;2024-02-21T08:58:29;9.50;99.90
76567;DHT22;65428;53.194;6.132;2024-02-21T09:00:55;9.50;99.90
76567;DHT22;65428;53.194;6.132;2024-02-21T09:03:22;9.60;99.90
76567;DHT22;65428;53.194;6.132;2024-02-21T09:05:48;9.80;99.90
76567;DHT22;65428;53.194;6.132;2024-02-21T09:08:14;9.60;99.90
76567;DHT22;65428;53.194;6.132;2024-02-21T09:10:40;9.60;99.90
76567;DHT22;65428;53.194;6.132;2024-02-21T09:13:06;10.10;99.90
76567;DHT22;65428;53.194;6.132;2024-02-21T09:15:33;9.60;99.90
76567;DHT22;65428;53.194;6.132;2024-02-21T09:17:59;9.70;99.90
76567;DHT22;65428;53.194;6.132;2024-02-21T09:20:25;9.90;99.90
76567;DHT22;65428;53.194;6.132;2024-02-21T09:22:50;9.70;99.90
76567;DHT22;65428;53.194;6.132;2024-02-21T09:25:17;10.00;99.90
76567;DHT22;65428;53.194;6.132;2024-02-21T09:27:44;9.90;99.90
76567;DHT22;65428;53.194;6.132;2024-02-21T09:30:11;9.60;99.90
76567;DHT22;65428;53.194;6.132;2024-02-21T09:32:37;9.70;99.90
76567;DHT22;65428;53.194;6.132;2024-02-21T09:35:03;9.70;99.90
76567;DHT22;65428;53.194;6.132;2024-02-21T09:37:31;9.70;99.90
76567;DHT22;65428;53.194;6.132;2024-02-21T09:39:56;9.70;99.90
76567;DHT22;65428;53.194;6.132;2024-02-21T09:42:37;10.10;99.90
76567;DHT22;65428;53.194;6.132;2024-02-21T09:45:24;9.80;99.90
76567;DHT22;65428;53.194;6.132;2024-02-21T09:48:09;10.10;99.90
76567;DHT22;65428;53.194;6.132;2024-02-21T09:50:39;9.90;99.90
76567;DHT22;65428;53.194;6.132;2024-02-21T09:53:06;10.20;99.90
76567;DHT22;65428;53.194;6.132;2024-02-21T09:55:37;10.00;99.90
76567;DHT22;65428;53.194;6.132;2024-02-21T09:58:05;9.90;99.90
76567;DHT22;65428;53.194;6.132;2024-02-21T10:00:31;9.90;99.90
76567;DHT22;65428;53.194;6.132;2024-02-21T10:02:58;10.30;99.90
76567;DHT22;65428;53.194;6.132;2024-02-21T10:05:24;10.00;99.90
76567;DHT22;65428;53.194;6.132;2024-02-21T10:07:51;10.10;99.90
76567;DHT22;65428;53.194;6.132;2024-02-21T10:10:19;10.10;99.90
76567;DHT22;65428;53.194;6.132;2024-02-21T10:12:51;10.30;99.90
76567;DHT22;65428;53.194;6.132;2024-02-21T10:15:20;10.10;99.90
76567;DHT22;65428;53.194;6.132;2024-02-21T10:17:59;10.50;99.90
76567;DHT22;65428;53.194;6.132;2024-02-21T10:20:26;10.20;99.90
76567;DHT22;65428;53.194;6.132;2024-02-21T10:23:01;10.20;99.90
76567;DHT22;65428;53.194;6.132;2024-02-21T10:25:34;10.40;99.90
76567;DHT22;65428;53.194;6.132;2024-02-21T10:28:01;10.20;99.90
76567;DHT22;65428;53.194;6.132;2024-02-21T10:30:27;10.60;99.90
76567;DHT22;65428;53.194;6.132;2024-02-21T10:32:53;10.30;99.90
76567;DHT22;65428;53.194;6.132;2024-02-21T10:35:32;10.30;99.90
76567;DHT22;65428;53.194;6.132;2024-02-21T10:37:58;10.30;99.90
76567;DHT22;65428;53.194;6.132;2024-02-21T10:40:28;10.80;99.90
76567;DHT22;65428;53.194;6.132;2024-02-21T10:42:59;10.50;99.90
76567;DHT22;65428;53.194;6.132;2024-02-21T10:45:35;10.60;99.90
76567;DHT22;65428;53.194;6.132;2024-02-21T10:48:11;10.70;99.90
76567;DHT22;65428;53.194;6.132;2024-02-21T10:51:01;10.70;99.90
76567;DHT22;65428;53.194;6.132;2024-02-21T10:53:47;10.70;99.90
76567;DHT22;65428;53.194;6.132;2024-02-21T10:56:32;10.80;99.90
76567;DHT22;65428;53.194;6.132;2024-02-21T10:59:04;10.80;99.90
76567;DHT22;65428;53.194;6.132;2024-02-21T11:01:30;11.20;99.90
76567;DHT22;65428;53.194;6.132;2024-02-21T11:04:05;10.70;99.90
76567;DHT22;65428;53.194;6.132;2024-02-21T11:06:33;11.00;99.90
76567;DHT22;65428;53.194;6.132;2024-02-21T11:09:04;11.00;99.90
76567;DHT22;65428;53.194;6.132;2024-02-21T11:11:45;10.90;99.90
76567;DHT22;65428;53.194;6.132;2024-02-21T11:14:18;10.90;99.90
76567;DHT22;65428;53.194;6.132;2024-02-21T11:16:44;10.80;99.90
76567;DHT22;65428;53.194;6.132;2024-02-21T11:19:20;10.80;99.90
76567;DHT22;65428;53.194;6.132;2024-02-21T11:21:46;10.80;99.90
76567;DHT22;65428;53.194;6.132;2024-02-21T11:24:13;10.50;99.90
76567;DHT22;65428;53.194;6.132;2024-02-21T11:26:40;10.70;99.90
76567;DHT22;65428;53.194;6.132;2024-02-21T11:29:09;10.60;99.90
76567;DHT22;65428;53.194;6.132;2024-02-21T11:31:42;10.40;99.90
76567;DHT22;65428;53.194;6.132;2024-02-21T11:34:10;10.40;99.90
76567;DHT22;65428;53.194;6.132;2024-02-21T11:36:45;10.40;99.90
76567;DHT22;65428;53.194;6.132;2024-02-21T11:39:12;10.50;99.90
76567;DHT22;65428;53.194;6.132;2024-02-21T11:41:38;10.60;99.90
76567;DHT22;65428;53.194;6.132;2024-02-21T11:44:03;10.80;99.90
76567;DHT22;65428;53.194;6.132;2024-02-21T11:46:29;10.50;99.90
76567;DHT22;65428;53.194;6.132;2024-02-21T11:48:55;10.50;99.90
76567;DHT22;65428;53.194;6.132;2024-02-21T11:51:30;10.50;99.90
76567;DHT22;65428;53.194;6.132;2024-02-21T11:53:56;10.40;99.90
76567;DHT22;65428;53.194;6.132;2024-02-21T11:56:23;10.50;99.90
76567;DHT22;65428;53.194;6.132;2024-02-21T11:58:51;10.50;99.90
76567;DHT22;65428;53.194;6.132;2024-02-21T12:01:17;10.40;99.90
76567;DHT22;65428;53.194;6.132;2024-02-21T12:03:42;10.40;99.90
76567;DHT22;65428;53.194;6.132;2024-02-21T12:06:15;10.40;99.90
76567;DHT22;65428;53.194;6.132;2024-02-21T12:08:45;10.40;99.90
76567;DHT22;65428;53.194;6.132;2024-02-21T12:11:21;10.50;99.90
76567;DHT22;65428;53.194;6.132;2024-02-21T12:13:58;10.40;99.90
76567;DHT22;65428;53.194;6.132;2024-02-21T12:16:25;10.60;99.90
76567;DHT22;65428;53.194;6.132;2024-02-21T12:18:56;10.40;99.90
76567;DHT22;65428;53.194;6.132;2024-02-21T12:21:31;10.40;99.90
76567;DHT22;65428;53.194;6.132;2024-02-21T12:23:58;10.80;99.90
76567;DHT22;65428;53.194;6.132;2024-02-21T12:26:25;10.40;99.90
76567;DHT22;65428;53.194;6.132;2024-02-21T12:28:53;10.90;99.90
76567;DHT22;65428;53.194;6.132;2024-02-21T12:31:19;10.70;99.90
76567;DHT22;65428;53.194;6.132;2024-02-21T12:33:44;10.60;99.90
76567;DHT22;65428;53.194;6.132;2024-02-21T12:36:10;10.80;99.90
76567;DHT22;65428;53.194;6.132;2024-02-21T12:38:36;11.00;99.90
76567;DHT22;65428;53.194;6.132;2024-02-21T12:41:02;10.50;99.90
76567;DHT22;65428;53.194;6.132;2024-02-21T12:43:28;10.50;99.90
76567;DHT22;65428;53.194;6.132;2024-02-21T12:45:54;10.50;99.90
76567;DHT22;65428;53.194;6.132;2024-02-21T12:48:20;10.40;99.90
76567;DHT22;65428;53.194;6.132;2024-02-21T12:50:49;10.80;99.90
76567;DHT22;65428;53.194;6.132;2024-02-21T12:53:21;10.70;99.90
76567;DHT22;65428;53.194;6.132;2024-02-21T12:55:49;10.40;99.90
76567;DHT22;65428;53.194;6.132;2024-02-21T12:58:14;10.50;99.90
76567;DHT22;65428;53.194;6.132;2024-02-21T13:00:41;10.90;99.90
76567;DHT22;65428;53.194;6.132;2024-02-21T13:03:07;10.50;99.90
76567;DHT22;65428;53.194;6.132;2024-02-21T13:05:33;10.90;99.90
76567;DHT22;65428;53.194;6.132;2024-02-21T13:07:59;10.70;99.90
76567;DHT22;65428;53.194;6.132;2024-02-21T13:10:25;11.00;99.90
76567;DHT22;65428;53.194;6.132;2024-02-21T13:12:51;10.80;99.90
76567;DHT22;65428;53.194;6.132;2024-02-21T13:15:16;10.80;99.90
76567;DHT22;65428;53.194;6.132;2024-02-21T13:17:46;11.20;99.90
76567;DHT22;65428;53.194;6.132;2024-02-21T13:20:12;10.90;99.90
76567;DHT22;65428;53.194;6.132;2024-02-21T13:22:38;10.90;99.90
76567;DHT22;65428;53.194;6.132;2024-02-21T13:25:04;11.20;99.90
76567;DHT22;65428;53.194;6.132;2024-02-21T13:27:33;10.80;99.90
76567;DHT22;65428;53.194;6.132;2024-02-21T13:29:58;11.50;99.90
76567;DHT22;65428;53.194;6.132;2024-02-21T13:32:25;10.90;99.90
76567;DHT22;65428;53.194;6.132;2024-02-21T13:34:51;11.00;99.90
76567;DHT22;65428;53.194;6.132;2024-02-21T13:37:18;11.10;99.90
76567;DHT22;65428;53.194;6.132;2024-02-21T13:39:43;11.10;99.90
76567;DHT22;65428;53.194;6.132;2024-02-21T13:42:09;10.80;99.90
76567;DHT22;65428;53.194;6.132;2024-02-21T13:44:35;10.80;99.90
76567;DHT22;65428;53.194;6.132;2024-02-21T13:47:02;11.10;99.90
76567;DHT22;65428;53.194;6.132;2024-02-21T13:49:28;10.80;99.90
76567;DHT22;65428;53.194;6.132;2024-02-21T13:51:55;10.70;99.90
76567;DHT22;65428;53.194;6.132;2024-02-21T13:54:21;10.90;99.90
76567;DHT22;65428;53.194;6.132;2024-02-21T13:56:47;10.50;99.90
76567;DHT22;65428;53.194;6.132;2024-02-21T13:59:13;11.00;99.90
76567;DHT22;65428;53.194;6.132;2024-02-21T14:01:39;10.50;99.90
76567;DHT22;65428;53.194;6.132;2024-02-21T14:04:05;10.60;99.90
76567;DHT22;65428;53.194;6.132;2024-02-21T14:06:30;10.80;99.90
76567;DHT22;65428;53.194;6.132;2024-02-21T14:08:56;10.60;99.90
76567;DHT22;65428;53.194;6.132;2024-02-21T14:11:22;10.50;99.90
76567;DHT22;65428;53.194;6.132;2024-02-21T14:13:48;10.80;99.90
76567;DHT22;65428;53.194;6.132;2024-02-21T14:16:14;10.70;99.90
76567;DHT22;65428;53.194;6.132;2024-02-21T14:18:40;10.40;99.90
76567;DHT22;65428;53.194;6.132;2024-02-21T14:21:08;10.30;99.90
76567;DHT22;65428;53.194;6.132;2024-02-21T14:23:39;10.30;99.90
76567;DHT22;65428;53.194;6.132;2024-02-21T14:26:05;10.30;99.90
76567;DHT22;65428;53.194;6.132;2024-02-21T14:28:32;10.30;99.90
76567;DHT22;65428;53.194;6.132;2024-02-21T14:31:01;10.90;99.90
76567;DHT22;65428;53.194;6.132;2024-02-21T14:33:27;10.50;99.90
76567;DHT22;65428;53.194;6.132;2024-02-21T14:35:53;10.50;99.90
76567;DHT22;65428;53.194;6.132;2024-02-21T14:38:21;10.20;99.90
76567;DHT22;65428;53.194;6.132;2024-02-21T14:40:48;10.10;99.90
76567;DHT22;65428;53.194;6.132;2024-02-21T14:43:14;10.20;99.90
76567;DHT22;65428;53.194;6.132;2024-02-21T14:45:40;10.20;99.90
76567;DHT22;65428;53.194;6.132;2024-02-21T14:48:06;10.20;99.90
76567;DHT22;65428;53.194;6.132;2024-02-21T14:50:32;10.10;99.90
76567;DHT22;65428;53.194;6.132;2024-02-21T14:52:58;10.30;99.90
76567;DHT22;65428;53.194;6.132;2024-02-21T14:55:24;10.20;99.90
76567;DHT22;65428;53.194;6.132;2024-02-21T14:57:50;10.20;99.90
76567;DHT22;65428;53.194;6.132;2024-02-21T15:00:16;9.90;99.90
76567;DHT22;65428;53.194;6.132;2024-02-21T15:02:42;10.10;99.90
76567;DHT22;65428;53.194;6.132;2024-02-21T15:05:09;10.40;99.90
76567;DHT22;65428;53.194;6.132;2024-02-21T15:07:35;10.10;99.90
76567;DHT22;65428;53.194;6.132;2024-02-21T15:10:01;10.50;99.90
76567;DHT22;65428;53.194;6.132;2024-02-21T15:12:26;10.10;99.90
76567;DHT22;65428;53.194;6.132;2024-02-21T15:14:52;10.40;99.90
76567;DHT22;65428;53.194;6.132;2024-02-21T15:17:18;10.30;99.90
76567;DHT22;65428;53.194;6.132;2024-02-21T15:19:44;10.70;99.90
76567;DHT22;65428;53.194;6.132;2024-02-21T15:22:10;10.30;99.90
76567;DHT22;65428;53.194;6.132;2024-02-21T15:24:42;10.40;99.90
76567;DHT22;65428;53.194;6.132;2024-02-21T15:27:08;10.30;99.90
76567;DHT22;65428;53.194;6.132;2024-02-21T15:29:34;10.40;99.90
76567;DHT22;65428;53.194;6.132;2024-02-21T15:32:02;10.30;99.90
76567;DHT22;65428;53.194;6.132;2024-02-21T15:34:28;10.10;99.90
76567;DHT22;65428;53.194;6.132;2024-02-21T15:36:54;10.40;99.90
76567;DHT22;65428;53.194;6.132;2024-02-21T15:39:19;10.30;99.90
76567;DHT22;65428;53.194;6.132;2024-02-21T15:41:46;10.30;99.90